Here is the Quick Look data you requested

The Data originates at the National Weather Service, and is made available here by the UAlbany Department of Atmospheric and Environmental Sciences

Surface Observations

KCVG 081652Z 22011G17KT 10SM FEW026 SCT038 30/25 A3007 RMK AO2 SLP172 T03000250=
KCVG 081752Z 23011KT 10SM FEW032 SCT043TCU SCT055 31/25 A3006 RMK AO2 SLP169
 TCU NW-N MDT CU E T03110250 10311 20222 58009=
KCVG 081852Z 23011KT 10SM SCT040TCU SCT070 32/24 A3005 RMK AO2 SLP163 TCU N AND
 SW MDT CU E VCSH SW T03170244=
KCVG 081952Z 23010KT 10SM FEW040 FEW065 SCT250 31/24 A3002 RMK AO2 SLP155 TCU
 DSNT SW T03060239=
KCVG 082052Z 21012G17KT 10SM FEW036 FEW120 FEW250 31/25 A2999 RMK AO2 LTG DSNT
 NW SLP144 CB DSNT NW T03110250 58024=
KCVG 082152Z 23010KT 10SM FEW038 FEW130 FEW250 31/22 A2997 RMK AO2 SLP138 CB
 DSNT W TCU DSNT N T03060222=
KCVG 082252Z 23008KT 10SM FEW040 FEW160 FEW250 31/25 A2996 RMK AO2 SLP134
 T03060250=
KCVG 082352Z 20008KT 10SM FEW180 FEW250 29/26 A2996 RMK AO2 SLP133 T02940256
 10317 20294 56011=
KCVG 090052Z 19006KT 10SM FEW020 FEW180 FEW250 28/25 A2997 RMK AO2 SLP136 FU
 FEW020 FU VC S-SW T02780250=
KCVG 090152Z 21005KT 10SM CLR 27/24 A2999 RMK AO2 SLP145 T02720244=
KCVG 090252Z 20005KT 10SM CLR 26/24 A3001 RMK AO2 SLP152 T02610244 53018=
KCVG 090352Z 21005KT 10SM CLR 26/23 A3002 RMK AO2 SLP153 T02610233 $=
KCVG 090452Z 20007KT 10SM BKN060 26/23 A3002 RMK AO2 LTG DSNT NW SLP153
 T02610233 403170211 $=
KCVG 090552Z 22006KT 10SM FEW031 BKN050 BKN060 26/23 A3002 RMK AO2 LTG DSNT
 NW-NE SLP152 T02610233 10294 20256 50002 $=
KCVG 090601Z 25006KT 10SM VCTS SCT031 BKN050 OVC090 26/23 A3002 RMK AO2 LTG
 DSNT NW-NE TSE0555 T02610233 $=
KCVG 090616Z 29009G16KT 10SM SCT021 BKN031 OVC055 26/23 A3003 RMK AO2 LTG DSNT
 NW-NE TSE0555 T02610228 $=
KCVG 090652Z 00000KT 10SM SCT050 25/22 A3000 RMK AO2 LTG DSNT NE TSE0555 SLP148
 T02500222 $=
KCVG 090752Z 00000KT 10SM FEW050 24/22 A3002 RMK AO2 SLP153 T02390222 $=
KCVG 090852Z 00000KT 10SM FEW150 23/22 A3002 RMK AO2 SLP154 T02280217 53000 $=
KCVG 090952Z 20004KT 9SM BKN060 23/22 A3002 RMK AO2 SLP154 T02280222 $=
KCVG 091052Z 00000KT 7SM FEW060 BKN070 23/23 A3002 RMK AO2 SLP155 T02330228 $=
KCVG 091152Z 19004KT 8SM SCT060 SCT140 24/23 A3004 RMK AO2 SLP160 T02390233
 10261 20222 53006=
KCVG 091252Z 26006KT 8SM FEW008 FEW029 BKN060 26/23 A3006 RMK AO2 SLP167 TCU
 DSNT N T02560233=
KCVG 091331Z 29006KT 8SM FEW011 BKN027 OVC032 26/23 A3007 RMK AO2 T02560233=
KCVG 091352Z 30005KT 8SM FEW012 SCT028 BKN034 27/24 A3006 RMK AO2 SLP168
 T02670239=
KCVG 091452Z VRB05KT 10SM SCT015 BKN033 27/24 A3006 RMK AO2 SLP167 T02720239
 50006=
KCVG 091516Z 23004KT 9SM BKN016 BKN024 27/24 A3006 RMK AO2 T02720239=
KCVG 091552Z 23007KT 9SM FEW020 BKN027 28/23 A3006 RMK AO2 SLP168 T02780233=
KCVG 091605Z 24007KT 7SM FEW020 SCT026 BKN032 28/24 A3006 RMK AO2 T02780239=
KCVG 091652Z 25006KT 8SM SCT027 BKN033TCU 29/23 A3006 RMK AO2 SLP168 TCU N
 T02890233=
KCVG 091739Z 25008G14KT 10SM VCTS SCT028 BKN036CB 29/23 A3006 RMK AO2 LTG DSNT
 NE CB NE MOV E T02940233=